createdAt,value
2018-05-06T00:00:56.991Z,5.10
2018-05-06T00:03:23.021Z,5.30
2018-05-06T00:05:49.181Z,5.20
2018-05-06T00:08:15.206Z,5.13
2018-05-06T00:10:41.473Z,5.50
2018-05-06T00:13:07.512Z,5.70
2018-05-06T00:15:33.628Z,5.03
2018-05-06T00:17:59.681Z,5.97
2018-05-06T00:20:25.745Z,4.93
2018-05-06T00:22:51.800Z,5.90
2018-05-06T00:25:17.821Z,5.57
2018-05-06T00:27:43.864Z,5.60
2018-05-06T00:30:10.116Z,5.57
2018-05-06T00:32:36.321Z,5.07
2018-05-06T00:35:02.381Z,5.40
2018-05-06T00:37:28.652Z,5.43
2018-05-06T00:39:54.656Z,5.40
2018-05-06T00:42:20.685Z,5.23
2018-05-06T00:44:46.733Z,5.40
2018-05-06T00:47:12.814Z,4.70
2018-05-06T00:49:39.566Z,5.10
2018-05-06T00:52:05.669Z,5.40
2018-05-06T00:54:42.537Z,4.83
2018-05-06T00:57:08.594Z,5.53
2018-05-06T00:59:35.197Z,5.33
2018-05-06T01:02:01.573Z,5.00
2018-05-06T01:04:27.601Z,4.97
2018-05-06T01:06:53.724Z,4.67
2018-05-06T01:09:20.378Z,5.50
2018-05-06T01:11:46.413Z,4.63
2018-05-06T01:14:12.480Z,5.10
2018-05-06T01:16:38.522Z,5.40
2018-05-06T01:19:04.546Z,5.37
2018-05-06T01:21:30.604Z,5.13
2018-05-06T01:23:56.733Z,4.83
2018-05-06T01:26:22.775Z,5.03
2018-05-06T01:28:48.941Z,5.10
2018-05-06T01:31:15.237Z,5.27
2018-05-06T01:33:41.318Z,5.20
2018-05-06T01:36:07.363Z,4.93
2018-05-06T01:38:33.449Z,5.43
2018-05-06T01:40:59.469Z,5.50
2018-05-06T01:43:26.277Z,5.30
2018-05-06T01:45:52.321Z,5.20
2018-05-06T01:48:18.349Z,5.43
2018-05-06T01:50:45.329Z,5.00
2018-05-06T01:53:11.374Z,4.87
2018-05-06T01:55:37.418Z,4.97
2018-05-06T01:58:03.601Z,6.47
2018-05-06T02:00:29.655Z,6.67
2018-05-06T02:02:55.681Z,5.80
2018-05-06T02:05:21.701Z,6.13
2018-05-06T02:07:47.710Z,5.27
2018-05-06T02:10:13.829Z,5.50
2018-05-06T02:12:40.568Z,5.20
2018-05-06T02:15:06.587Z,5.17
2018-05-06T02:17:32.623Z,5.33
2018-05-06T02:19:58.699Z,5.20
2018-05-06T02:22:24.749Z,5.87
2018-05-06T02:24:51.132Z,5.30
2018-05-06T02:27:17.147Z,5.50
2018-05-06T02:29:43.766Z,5.43
2018-05-06T02:32:09.786Z,5.80
2018-05-06T02:34:36.064Z,5.30
2018-05-06T02:37:02.217Z,5.33
2018-05-06T02:39:28.250Z,5.70
2018-05-06T02:41:54.293Z,5.47
2018-05-06T02:44:20.313Z,5.37
2018-05-06T02:46:46.363Z,5.57
2018-05-06T02:49:12.439Z,5.70
2018-05-06T02:51:39.206Z,5.57
2018-05-06T02:54:05.637Z,5.90
2018-05-06T02:56:31.681Z,6.30
2018-05-06T02:58:57.725Z,6.00
2018-05-06T03:01:23.805Z,5.70
2018-05-06T03:03:49.856Z,6.00
2018-05-06T03:06:15.890Z,6.20
2018-05-06T03:08:41.901Z,5.90
2018-05-06T03:11:08.097Z,5.60
2018-05-06T03:13:34.185Z,5.37
2018-05-06T03:16:00.233Z,5.50
2018-05-06T03:18:26.249Z,5.80
2018-05-06T03:20:52.266Z,5.87
2018-05-06T03:23:18.317Z,5.80
2018-05-06T03:25:44.485Z,5.63
2018-05-06T03:28:10.536Z,5.53
2018-05-06T03:30:37.021Z,5.60
2018-05-06T03:33:03.045Z,5.77
2018-05-06T03:35:29.096Z,5.73
2018-05-06T03:37:55.241Z,5.30
2018-05-06T03:40:21.280Z,5.90
2018-05-06T03:42:47.317Z,5.70
2018-05-06T03:45:13.582Z,5.67
2018-05-06T03:47:39.601Z,5.60
2018-05-06T03:50:05.805Z,5.20
2018-05-06T03:52:31.849Z,5.80
2018-05-06T03:54:58.495Z,5.57
2018-05-06T03:57:36.681Z,5.80
2018-05-06T04:00:15.516Z,5.97
2018-05-06T04:02:41.776Z,6.23
2018-05-06T04:05:08.004Z,5.30
2018-05-06T04:07:34.157Z,5.90
2018-05-06T04:10:00.193Z,6.07
2018-05-06T04:12:26.205Z,5.80
2018-05-06T04:14:52.231Z,6.33
2018-05-06T04:17:18.324Z,6.27
2018-05-06T04:19:44.377Z,6.30
2018-05-06T04:22:10.391Z,6.60
2018-05-06T04:24:36.465Z,5.87
2018-05-06T04:27:02.820Z,6.27
2018-05-06T04:29:28.853Z,6.30
2018-05-06T04:31:55.029Z,6.23
2018-05-06T04:34:21.062Z,6.30
2018-05-06T04:36:47.409Z,6.23
2018-05-06T04:39:13.489Z,6.20
2018-05-06T04:41:39.502Z,6.13
2018-05-06T04:44:05.672Z,6.53
2018-05-06T04:46:31.723Z,6.00
2018-05-06T04:48:57.745Z,5.80
2018-05-06T04:51:23.853Z,6.27
2018-05-06T04:53:49.818Z,6.33
2018-05-06T04:56:15.892Z,6.20
2018-05-06T04:58:41.983Z,6.70
2018-05-06T05:01:08.029Z,6.33
2018-05-06T05:03:34.785Z,6.30
2018-05-06T05:06:00.829Z,6.43
2018-05-06T05:08:26.896Z,5.90
2018-05-06T05:10:52.937Z,6.30
2018-05-06T05:13:19.762Z,6.17
2018-05-06T05:15:45.937Z,6.20
2018-05-06T05:18:11.949Z,6.37
2018-05-06T05:20:38.613Z,6.77
2018-05-06T05:23:04.645Z,6.57
2018-05-06T05:25:30.713Z,6.70
2018-05-06T05:27:57.473Z,6.03
2018-05-06T05:30:23.505Z,6.60
2018-05-06T05:32:49.561Z,6.80
2018-05-06T05:35:15.749Z,6.23
2018-05-06T05:37:42.625Z,6.97
2018-05-06T05:40:08.693Z,6.67
2018-05-06T05:42:34.721Z,6.60
2018-05-06T05:45:00.741Z,6.60
2018-05-06T05:47:26.805Z,6.37
2018-05-06T05:49:52.858Z,6.43
2018-05-06T05:52:18.909Z,6.07
2018-05-06T05:54:44.917Z,6.23
2018-05-06T05:57:11.221Z,6.40
2018-05-06T05:59:37.238Z,6.87
2018-05-06T06:02:03.305Z,6.50
2018-05-06T06:04:29.386Z,6.30
2018-05-06T06:06:55.427Z,6.37
2018-05-06T06:09:21.460Z,6.40
2018-05-06T06:11:47.465Z,6.17
2018-05-06T06:14:13.624Z,6.43
2018-05-06T06:16:39.686Z,6.50
2018-05-06T06:19:05.738Z,6.20
2018-05-06T06:21:31.784Z,6.40
2018-05-06T06:23:57.813Z,6.00
2018-05-06T06:26:23.870Z,5.83
2018-05-06T06:28:50.657Z,5.97
2018-05-06T06:31:16.757Z,6.10
2018-05-06T06:33:42.821Z,5.93
2018-05-06T06:36:08.879Z,5.53
2018-05-06T06:38:35.473Z,5.53
2018-05-06T06:41:01.579Z,5.83
2018-05-06T06:43:27.680Z,5.67
2018-05-06T06:45:53.737Z,5.63
2018-05-06T06:48:19.760Z,6.10
2018-05-06T06:50:45.912Z,5.97
2018-05-06T06:53:11.989Z,6.37
2018-05-06T06:55:38.023Z,5.80
2018-05-06T06:58:04.106Z,5.63
2018-05-06T07:00:30.457Z,6.10
2018-05-06T07:02:56.615Z,6.00
2018-05-06T07:05:22.638Z,6.53
2018-05-06T07:07:48.681Z,6.17
2018-05-06T07:10:14.761Z,6.27
2018-05-06T07:12:40.804Z,5.87
2018-05-06T07:15:06.901Z,6.03
2018-05-06T07:17:32.941Z,5.37
2018-05-06T07:19:59.010Z,6.40
2018-05-06T07:22:25.093Z,6.10
2018-05-06T07:24:51.157Z,6.47
2018-05-06T07:27:17.233Z,6.57
2018-05-06T07:29:43.256Z,6.43
2018-05-06T07:32:09.302Z,6.30
2018-05-06T07:34:36.097Z,6.37
2018-05-06T07:37:02.360Z,6.20
2018-05-06T07:39:28.422Z,5.83
2018-05-06T07:41:54.429Z,6.57
2018-05-06T07:44:20.673Z,6.77
2018-05-06T07:46:46.696Z,6.10
2018-05-06T07:49:12.712Z,6.07
2018-05-06T07:51:38.729Z,6.30
2018-05-06T07:54:05.157Z,6.07
2018-05-06T07:56:31.215Z,6.13
2018-05-06T07:58:57.250Z,6.10
2018-05-06T08:01:23.564Z,6.33
2018-05-06T08:03:49.584Z,6.07
2018-05-06T08:06:15.643Z,6.23
2018-05-06T08:08:41.689Z,6.17
2018-05-06T08:11:07.733Z,5.87
2018-05-06T08:13:33.808Z,6.37
2018-05-06T08:15:59.850Z,6.47
2018-05-06T08:18:25.917Z,6.63
2018-05-06T08:20:52.341Z,6.27
2018-05-06T08:23:18.368Z,6.97
2018-05-06T08:25:44.388Z,6.80
2018-05-06T08:28:10.393Z,6.57
2018-05-06T08:30:36.565Z,6.87
2018-05-06T08:33:02.612Z,6.17
2018-05-06T08:35:28.667Z,7.10
2018-05-06T08:37:54.733Z,6.23
2018-05-06T08:40:20.762Z,6.43
2018-05-06T08:42:46.813Z,6.47
2018-05-06T08:45:13.669Z,6.87
2018-05-06T08:47:39.713Z,6.17
2018-05-06T08:50:05.797Z,5.33
2018-05-06T08:52:31.818Z,5.90
2018-05-06T08:54:58.554Z,5.93
2018-05-06T08:57:24.609Z,6.40
2018-05-06T08:59:50.704Z,6.47
2018-05-06T09:02:16.737Z,6.40
2018-05-06T09:04:42.758Z,5.70
2018-05-06T09:07:08.805Z,5.73
2018-05-06T09:09:34.965Z,5.33
2018-05-06T09:12:01.779Z,5.90
2018-05-06T09:14:27.796Z,5.97
2018-05-06T09:16:54.561Z,5.53
2018-05-06T09:19:20.582Z,6.27
2018-05-06T09:21:47.065Z,5.17
2018-05-06T09:24:13.321Z,5.63
2018-05-06T09:26:39.409Z,5.70
2018-05-06T09:29:05.470Z,5.90
2018-05-06T09:31:31.505Z,5.73
2018-05-06T09:33:57.630Z,6.17
2018-05-06T09:36:23.702Z,6.00
2018-05-06T09:38:49.773Z,5.57
2018-05-06T09:41:15.809Z,5.90
2018-05-06T09:43:41.865Z,4.97
2018-05-06T09:46:07.929Z,5.80
2018-05-06T09:48:34.357Z,6.03
2018-05-06T09:51:00.372Z,6.40
2018-05-06T09:53:26.389Z,6.07
2018-05-06T09:55:52.446Z,6.00
2018-05-06T09:58:18.481Z,6.43
2018-05-06T10:00:44.554Z,6.50
2018-05-06T10:03:10.577Z,6.33
2018-05-06T10:05:36.649Z,5.77
2018-05-06T10:08:02.861Z,5.67
2018-05-06T10:10:28.952Z,6.07
2018-05-06T10:12:55.014Z,5.80
2018-05-06T10:15:21.048Z,5.40
2018-05-06T10:17:47.076Z,5.60
2018-05-06T10:20:13.454Z,5.87
2018-05-06T10:22:39.477Z,6.20
2018-05-06T10:25:06.137Z,6.27
2018-05-06T10:27:32.153Z,5.90
2018-05-06T10:29:58.197Z,5.53
2018-05-06T10:32:24.240Z,5.20
2018-05-06T10:34:50.298Z,5.60
2018-05-06T10:37:16.467Z,5.70
2018-05-06T10:39:42.558Z,5.57
2018-05-06T10:42:08.569Z,4.87
2018-05-06T10:44:35.414Z,6.17
2018-05-06T10:47:01.486Z,5.80
2018-05-06T10:49:28.621Z,5.73
2018-05-06T10:51:54.645Z,5.73
2018-05-06T10:54:20.669Z,6.00
2018-05-06T10:56:46.782Z,5.10
2018-05-06T10:59:12.813Z,5.20
2018-05-06T11:01:38.886Z,5.17
2018-05-06T11:04:05.561Z,5.07
2018-05-06T11:06:32.255Z,5.30
2018-05-06T11:08:58.328Z,4.63
2018-05-06T11:11:25.154Z,5.13
2018-05-06T11:13:51.359Z,5.00
2018-05-06T11:16:18.140Z,5.17
2018-05-06T11:18:44.189Z,5.37
2018-05-06T11:21:10.216Z,5.67
2018-05-06T11:23:36.254Z,5.10
2018-05-06T11:26:02.292Z,5.10
2018-05-06T11:28:28.678Z,5.03
2018-05-06T11:30:54.729Z,4.70
2018-05-06T11:33:20.852Z,5.13
2018-05-06T11:35:46.785Z,4.93
2018-05-06T11:38:12.857Z,5.57
2018-05-06T11:40:39.257Z,5.60
2018-05-06T11:43:05.337Z,5.37
2018-05-06T11:45:31.369Z,5.30
2018-05-06T11:47:57.393Z,5.23
2018-05-06T11:50:23.448Z,4.70
2018-05-06T11:52:49.531Z,4.70
2018-05-06T11:55:15.565Z,4.87
2018-05-06T11:57:41.645Z,4.40
2018-05-06T12:00:07.676Z,5.10
2018-05-06T12:02:33.769Z,4.43
2018-05-06T12:04:59.857Z,4.87
2018-05-06T12:07:26.058Z,4.70
2018-05-06T12:09:52.111Z,5.00
2018-05-06T12:12:18.569Z,4.37
2018-05-06T12:14:44.606Z,4.30
2018-05-06T12:17:10.694Z,4.53
2018-05-06T12:19:37.456Z,4.60
2018-05-06T12:22:03.490Z,4.07
2018-05-06T12:24:29.522Z,3.73
2018-05-06T12:26:55.545Z,4.50
2018-05-06T12:29:21.649Z,3.40
2018-05-06T12:31:47.681Z,3.83
2018-05-06T12:34:13.745Z,3.90
2018-05-06T12:36:39.761Z,3.83
2018-05-06T12:39:05.849Z,3.40
2018-05-06T12:41:32.005Z,3.60
2018-05-06T12:43:58.054Z,3.73
2018-05-06T12:46:24.541Z,3.90
2018-05-06T12:48:50.557Z,3.93
2018-05-06T12:51:16.648Z,3.43
2018-05-06T12:53:42.718Z,3.20
2018-05-06T12:56:08.771Z,3.40
2018-05-06T12:58:34.797Z,3.50
2018-05-06T13:01:00.812Z,3.77
2018-05-06T13:03:26.813Z,3.30
2018-05-06T13:05:53.062Z,3.40
2018-05-06T13:08:19.149Z,3.10
2018-05-06T13:10:45.244Z,3.00
2018-05-06T13:13:11.284Z,3.00
2018-05-06T13:15:38.035Z,2.90
2018-05-06T13:18:04.701Z,3.00
2018-05-06T13:20:30.746Z,2.80
2018-05-06T13:22:56.802Z,3.10
2018-05-06T13:25:23.572Z,3.20
2018-05-06T13:27:50.025Z,2.90
2018-05-06T13:30:16.672Z,2.93
2018-05-06T13:32:42.709Z,3.33
2018-05-06T13:35:08.736Z,3.10
2018-05-06T13:37:34.941Z,2.87
2018-05-06T13:40:01.007Z,3.50
2018-05-06T13:42:27.131Z,3.10
2018-05-06T13:44:53.245Z,3.30
2018-05-06T13:47:19.425Z,2.97
2018-05-06T13:49:45.574Z,2.53
2018-05-06T13:52:11.580Z,3.00
2018-05-06T13:54:37.705Z,3.03
2018-05-06T13:57:03.729Z,2.97
2018-05-06T13:59:30.177Z,2.77
2018-05-06T14:01:56.249Z,2.90
2018-05-06T14:04:22.269Z,2.93
2018-05-06T14:06:48.370Z,2.50
2018-05-06T14:09:14.418Z,2.40
2018-05-06T14:11:40.433Z,2.43
2018-05-06T14:14:06.534Z,2.40
2018-05-06T14:16:32.553Z,2.10
2018-05-06T14:18:58.645Z,2.30
2018-05-06T14:21:24.692Z,3.00
2018-05-06T14:23:50.732Z,2.90
2018-05-06T14:26:16.772Z,2.30
2018-05-06T14:28:42.826Z,2.40
2018-05-06T14:31:08.905Z,2.10
2018-05-06T14:33:34.934Z,2.60
2018-05-06T14:36:00.974Z,2.27
2018-05-06T14:38:27.003Z,2.53
2018-05-06T14:40:53.171Z,2.60
2018-05-06T14:43:19.287Z,2.67
2018-05-06T14:45:45.462Z,3.20
2018-05-06T14:48:14.401Z,3.30
2018-05-06T14:50:40.449Z,3.40
2018-05-06T14:53:06.492Z,3.20
2018-05-06T14:55:32.513Z,3.10
2018-05-06T14:57:58.557Z,3.17
2018-05-06T15:00:24.599Z,3.47
2018-05-06T15:02:50.637Z,3.23
2018-05-06T15:05:16.741Z,3.57
2018-05-06T15:07:42.765Z,3.33
2018-05-06T15:10:08.861Z,3.20
2018-05-06T15:12:34.890Z,4.03
2018-05-06T15:15:00.952Z,3.73
2018-05-06T15:17:26.993Z,3.97
2018-05-06T15:19:53.009Z,3.47
2018-05-06T15:22:19.240Z,3.80
2018-05-06T15:24:45.351Z,3.20
2018-05-06T15:27:11.590Z,2.90
2018-05-06T15:29:37.606Z,3.27
2018-05-06T15:32:03.622Z,3.33
2018-05-06T15:34:29.645Z,3.50
2018-05-06T15:36:55.669Z,3.90
2018-05-06T15:39:21.977Z,3.43
2018-05-06T15:41:48.030Z,3.27
2018-05-06T15:44:14.046Z,3.03
2018-05-06T15:46:40.073Z,4.97
2018-05-06T15:49:06.105Z,5.20
2018-05-06T15:51:32.232Z,4.90
2018-05-06T15:53:58.306Z,5.00
2018-05-06T15:56:24.364Z,4.60
2018-05-06T15:58:50.410Z,4.50
2018-05-06T16:01:16.440Z,4.33
2018-05-06T16:03:54.789Z,4.37
2018-05-06T16:06:20.841Z,4.67
2018-05-06T16:08:47.118Z,5.00
2018-05-06T16:11:13.235Z,4.10
2018-05-06T16:13:39.241Z,3.77
2018-05-06T16:16:05.502Z,3.60
2018-05-06T16:18:31.875Z,4.30
2018-05-06T16:20:57.817Z,4.20
2018-05-06T16:23:23.845Z,4.03
2018-05-06T16:25:49.937Z,3.67
2018-05-06T16:28:16.068Z,4.40
2018-05-06T16:30:42.141Z,4.30
2018-05-06T16:33:08.812Z,4.43
2018-05-06T16:35:34.762Z,4.67
2018-05-06T16:38:00.842Z,3.97
2018-05-06T16:40:27.785Z,4.40
2018-05-06T16:42:53.817Z,3.80
2018-05-06T16:45:19.889Z,3.97
2018-05-06T16:47:45.932Z,3.47
2018-05-06T16:50:11.948Z,3.77
2018-05-06T16:52:38.007Z,3.63
2018-05-06T16:55:04.100Z,3.47
2018-05-06T16:57:30.131Z,3.20
2018-05-06T16:59:56.189Z,3.03
2018-05-06T17:02:22.234Z,2.87
2018-05-06T17:04:48.313Z,2.60
2018-05-06T17:07:14.356Z,2.73
2018-05-06T17:09:40.433Z,2.70
2018-05-06T17:12:06.758Z,2.30
2018-05-06T17:14:32.785Z,2.10
2018-05-06T17:16:58.817Z,2.10
2018-05-06T17:19:25.009Z,2.23
2018-05-06T17:21:51.073Z,2.10
2018-05-06T17:24:17.496Z,1.80
2018-05-06T17:26:44.009Z,1.93
2018-05-06T17:29:10.072Z,2.10
2018-05-06T17:31:36.207Z,2.07
2018-05-06T17:34:02.242Z,2.40
2018-05-06T17:36:28.280Z,2.50
2018-05-06T17:38:54.423Z,2.57
2018-05-06T17:41:20.481Z,2.07
2018-05-06T17:43:46.578Z,2.30
2018-05-06T17:46:13.360Z,2.47
2018-05-06T17:48:39.405Z,2.37
2018-05-06T17:51:05.782Z,2.50
2018-05-06T17:53:32.048Z,2.13
2018-05-06T17:55:58.172Z,2.43
2018-05-06T17:58:24.928Z,2.40
2018-05-06T18:00:50.962Z,2.20
2018-05-06T18:03:16.982Z,2.13
2018-05-06T18:05:43.797Z,2.27
2018-05-06T18:08:09.905Z,2.27
2018-05-06T18:10:35.932Z,2.53
2018-05-06T18:13:02.485Z,2.40
2018-05-06T18:15:28.488Z,2.30
2018-05-06T18:17:54.545Z,2.37
2018-05-06T18:20:20.625Z,2.30
2018-05-06T18:22:46.695Z,2.10
2018-05-06T18:25:12.720Z,2.20
2018-05-06T18:27:38.738Z,2.10
2018-05-06T18:30:04.849Z,2.27
2018-05-06T18:32:30.898Z,1.87
2018-05-06T18:34:56.930Z,2.50
2018-05-06T18:37:22.963Z,2.30
2018-05-06T18:39:49.789Z,2.30
2018-05-06T18:42:15.795Z,2.27
2018-05-06T18:44:42.399Z,2.00
2018-05-06T18:47:08.543Z,2.00
2018-05-06T18:49:34.477Z,2.03
2018-05-06T18:52:00.524Z,2.23
2018-05-06T18:54:26.569Z,2.30
2018-05-06T18:56:53.391Z,2.20
2018-05-06T18:59:19.385Z,2.30
2018-05-06T19:01:45.693Z,2.10
2018-05-06T19:06:55.225Z,2.20
2018-05-06T19:09:21.252Z,2.30
2018-05-06T19:11:47.409Z,1.93
2018-05-06T19:14:13.493Z,2.27
2018-05-06T19:16:39.608Z,2.30
2018-05-06T19:19:05.653Z,2.13
2018-05-06T19:21:31.804Z,2.30
2018-05-06T19:23:57.893Z,2.27
2018-05-06T19:26:23.917Z,2.30
2018-05-06T19:28:49.933Z,2.40
2018-05-06T19:31:16.047Z,2.10
2018-05-06T19:33:42.136Z,2.20
2018-05-06T19:36:08.238Z,2.00
2018-05-06T19:38:34.265Z,1.97
2018-05-06T19:41:00.406Z,2.03
2018-05-06T19:43:26.489Z,2.67
2018-05-06T19:45:52.505Z,2.17
2018-05-06T19:48:18.805Z,2.00
2018-05-06T19:50:44.830Z,2.13
2018-05-06T19:53:10.877Z,2.33
2018-05-06T19:55:37.047Z,2.40
2018-05-06T19:58:03.207Z,2.13
2018-05-06T20:00:29.373Z,2.20
2018-05-06T20:02:55.409Z,2.13
2018-05-06T20:05:21.446Z,2.07
2018-05-06T20:07:47.506Z,2.00
2018-05-06T20:10:13.712Z,1.70
2018-05-06T20:12:39.873Z,2.20
2018-05-06T20:15:05.909Z,2.33
2018-05-06T20:17:31.933Z,2.20
2018-05-06T20:19:58.002Z,1.93
2018-05-06T20:22:24.040Z,2.20
2018-05-06T20:24:50.057Z,2.30
2018-05-06T20:27:16.148Z,2.30
2018-05-06T20:29:42.393Z,2.20
2018-05-06T20:32:08.437Z,2.23
2018-05-06T20:34:34.602Z,1.90
2018-05-06T20:37:00.633Z,2.17
2018-05-06T20:39:26.700Z,2.13
2018-05-06T20:41:52.732Z,2.20
2018-05-06T20:44:18.793Z,2.20
2018-05-06T20:46:45.242Z,2.20
2018-05-06T20:49:11.262Z,2.80
2018-05-06T20:51:37.309Z,2.10
2018-05-06T20:54:03.329Z,2.37
2018-05-06T20:56:29.347Z,2.20
2018-05-06T20:58:55.386Z,2.50
2018-05-06T21:01:21.581Z,2.23
2018-05-06T21:03:47.657Z,2.63
2018-05-06T21:06:13.729Z,2.40
2018-05-06T21:08:39.753Z,2.10
2018-05-06T21:11:05.821Z,2.33
2018-05-06T21:13:31.991Z,2.20
2018-05-06T21:15:58.065Z,2.37
2018-05-06T21:18:25.185Z,2.37
2018-05-06T21:20:51.237Z,2.70
2018-05-06T21:23:17.244Z,2.50
2018-05-06T21:25:43.798Z,2.53
2018-05-06T21:28:09.910Z,2.40
2018-05-06T21:30:36.084Z,2.30
2018-05-06T21:33:02.086Z,2.47
2018-05-06T21:35:28.795Z,2.50
2018-05-06T21:37:54.910Z,2.13
2018-05-06T21:40:20.993Z,2.37
2018-05-06T21:42:48.394Z,2.70
2018-05-06T21:45:14.402Z,2.73
2018-05-06T21:47:40.468Z,2.70
2018-05-06T21:50:06.600Z,2.60
2018-05-06T21:52:33.321Z,2.50
2018-05-06T21:54:59.345Z,2.83
2018-05-06T21:57:25.460Z,2.70
2018-05-06T21:59:51.481Z,2.47
2018-05-06T22:02:17.617Z,3.10
2018-05-06T22:04:44.297Z,2.60
2018-05-06T22:07:10.333Z,2.43
2018-05-06T22:09:37.112Z,2.50
2018-05-06T22:12:03.163Z,2.60
2018-05-06T22:14:29.189Z,3.00
2018-05-06T22:16:55.241Z,2.60
2018-05-06T22:19:21.271Z,2.70
2018-05-06T22:21:47.321Z,2.77
2018-05-06T22:24:13.362Z,2.70
2018-05-06T22:26:39.401Z,2.97
2018-05-06T22:29:06.437Z,2.90
2018-05-06T22:31:32.445Z,3.07
2018-05-06T22:33:58.497Z,3.10
2018-05-06T22:36:24.644Z,2.80
2018-05-06T22:38:50.669Z,3.00
2018-05-06T22:41:16.757Z,2.67
2018-05-06T22:43:43.093Z,2.97
2018-05-06T22:46:09.357Z,2.97
2018-05-06T22:48:35.377Z,3.07
2018-05-06T22:51:01.446Z,3.20
2018-05-06T22:53:27.493Z,3.20
2018-05-06T22:55:53.643Z,2.73
2018-05-06T22:58:19.695Z,3.17
2018-05-06T23:00:46.625Z,3.20
2018-05-06T23:03:12.640Z,3.00
2018-05-06T23:05:38.765Z,3.37
2018-05-06T23:08:04.933Z,3.17
2018-05-06T23:10:31.026Z,3.60
2018-05-06T23:12:57.039Z,3.47
2018-05-06T23:15:23.791Z,3.70
2018-05-06T23:17:49.855Z,3.20
2018-05-06T23:20:15.865Z,3.00
2018-05-06T23:22:42.158Z,3.30
2018-05-06T23:25:08.410Z,3.20
2018-05-06T23:27:34.437Z,3.60
2018-05-06T23:30:00.460Z,3.37
2018-05-06T23:32:26.537Z,3.00
2018-05-06T23:34:52.573Z,3.33
2018-05-06T23:37:18.617Z,3.03
2018-05-06T23:39:44.815Z,3.30
2018-05-06T23:42:10.840Z,3.30
2018-05-06T23:44:36.973Z,3.83
2018-05-06T23:47:03.021Z,3.53
2018-05-06T23:49:29.096Z,3.60
2018-05-06T23:51:55.149Z,3.87
2018-05-06T23:54:21.181Z,4.00
2018-05-06T23:56:47.257Z,3.30
2018-05-06T23:59:13.346Z,4.07
